N443SE KMYR-KMYR
Flight info
| Callsign | N443SE |
|---|---|
| Flight time | N/A |
| Altitude | 1000 |
| Route | VFR SOUTH |
| Aircraft | H500/L-VGD/C |
Departure
| Time | 2026-05-03 22:39 |
|---|---|
| Airport | Myrtle Beach International Airport (KMYR) |
Arrival
| Time | N/A |
|---|---|
| Airport | Myrtle Beach International Airport (KMYR) |
| Time | Latitude | Longitude | Altitude | Speed | Heading |
|---|---|---|---|---|---|
| 2026-05-03 22:21 | 33.67462 | -78.93379 | 28 ft | 0 kts | 348° |
| 2026-05-03 22:37 | 33.67462 | -78.93377 | 31 ft | 3 kts | 322° |
| 2026-05-03 22:37 | 33.67473 | -78.93383 | 57 ft | 5 kts | 78° |
| 2026-05-03 22:37 | 33.67480 | -78.93399 | 100 ft | 2 kts | 161° |
| 2026-05-03 22:37 | 33.67464 | -78.93405 | 149 ft | 8 kts | 167° |
| 2026-05-03 22:38 | 33.67221 | -78.93430 | 203 ft | 59 kts | 202° |
| 2026-05-03 22:38 | 33.66866 | -78.93810 | 339 ft | 72 kts | 222° |
| 2026-05-03 22:38 | 33.66529 | -78.94282 | 466 ft | 78 kts | 221° |
| 2026-05-03 22:38 | 33.66177 | -78.94800 | 612 ft | 79 kts | 224° |
| 2026-05-03 22:39 | 33.65740 | -78.95185 | 672 ft | 77 kts | 197° |
| 2026-05-03 22:39 | 33.65217 | -78.95392 | 679 ft | 82 kts | 195° |
| 2026-05-03 22:39 | 33.64689 | -78.95614 | 729 ft | 80 kts | 199° |
| 2026-05-03 22:39 | 33.64165 | -78.95888 | 733 ft | 83 kts | 203° |
| 2026-05-03 22:40 | 33.63661 | -78.96190 | 744 ft | 81 kts | 202° |
| 2026-05-03 22:40 | 33.63127 | -78.96441 | 745 ft | 83 kts | 193° |
| 2026-05-03 22:40 | 33.62592 | -78.96681 | 706 ft | 81 kts | 198° |
| 2026-05-03 22:40 | 33.62064 | -78.96890 | 673 ft | 80 kts | 188° |
| 2026-05-03 22:41 | 33.61517 | -78.96708 | 572 ft | 83 kts | 158° |
| 2026-05-03 22:41 | 33.60974 | -78.96639 | 495 ft | 83 kts | 193° |
| 2026-05-03 22:41 | 33.60487 | -78.97060 | 401 ft | 89 kts | 214° |
| 2026-05-03 22:41 | 33.60039 | -78.97518 | 422 ft | 81 kts | 207° |
| 2026-05-03 22:42 | 33.59588 | -78.97904 | 428 ft | 77 kts | 212° |
| 2026-05-03 22:42 | 33.59214 | -78.98334 | 490 ft | 74 kts | 236° |
| 2026-05-03 22:42 | 33.59266 | -78.99003 | 475 ft | 90 kts | 280° |
| 2026-05-03 22:42 | 33.59426 | -78.99670 | 580 ft | 76 kts | 269° |
| 2026-05-03 22:43 | 33.59250 | -79.00224 | 585 ft | 72 kts | 226° |
| 2026-05-03 22:43 | 33.58960 | -79.00743 | 592 ft | 77 kts | 230° |
| 2026-05-03 22:43 | 33.58652 | -79.01261 | 578 ft | 75 kts | 230° |
| 2026-05-03 22:43 | 33.58328 | -79.01714 | 637 ft | 68 kts | 222° |
| 2026-05-03 22:44 | 33.57979 | -79.02099 | 677 ft | 68 kts | 210° |
| 2026-05-03 22:44 | 33.57629 | -79.02451 | 743 ft | 60 kts | 219° |
| 2026-05-03 22:44 | 33.57339 | -79.02836 | 789 ft | 68 kts | 216° |
| 2026-05-03 22:44 | 33.56939 | -79.03218 | 771 ft | 77 kts | 213° |
| 2026-05-03 22:45 | 33.56493 | -79.03522 | 779 ft | 73 kts | 201° |
| 2026-05-03 22:45 | 33.56000 | -79.03735 | 797 ft | 80 kts | 201° |
| 2026-05-03 22:45 | 33.55452 | -79.03990 | 950 ft | 87 kts | 201° |
| 2026-05-03 22:45 | 33.54873 | -79.04174 | 1094 ft | 87 kts | 197° |
| 2026-05-03 22:46 | 33.54318 | -79.04472 | 1175 ft | 86 kts | 199° |
| 2026-05-03 22:46 | 33.53754 | -79.04327 | 1226 ft | 89 kts | 153° |
| 2026-05-03 22:46 | 33.53227 | -79.03853 | 1156 ft | 98 kts | 149° |
| 2026-05-03 22:46 | 33.52613 | -79.03538 | 1094 ft | 96 kts | 183° |
| 2026-05-03 22:47 | 33.52184 | -79.03739 | 948 ft | 104 kts | 214° |
| 2026-05-03 22:47 | 33.51677 | -79.04394 | 793 ft | 107 kts | 227° |
| 2026-05-03 22:47 | 33.51202 | -79.05062 | 752 ft | 103 kts | 224° |
| 2026-05-03 22:47 | 33.50726 | -79.05694 | 743 ft | 103 kts | 225° |
| 2026-05-03 22:48 | 33.50235 | -79.06325 | 701 ft | 105 kts | 223° |
| 2026-05-03 22:48 | 33.49705 | -79.06926 | 696 ft | 104 kts | 218° |
| 2026-05-03 22:48 | 33.49183 | -79.07517 | 657 ft | 101 kts | 220° |
| 2026-05-03 22:48 | 33.48588 | -79.07770 | 575 ft | 98 kts | 159° |
| 2026-05-03 22:49 | 33.48395 | -79.07038 | 562 ft | 112 kts | 71° |
| 2026-05-03 22:49 | 33.48969 | -79.06350 | 535 ft | 115 kts | 53° |
| 2026-05-03 22:49 | 33.49441 | -79.05596 | 634 ft | 110 kts | 59° |
| 2026-05-03 22:49 | 33.49859 | -79.04827 | 686 ft | 110 kts | 63° |
| 2026-05-03 22:50 | 33.50294 | -79.04059 | 700 ft | 114 kts | 58° |
| 2026-05-03 22:50 | 33.50770 | -79.03315 | 715 ft | 113 kts | 56° |
| 2026-05-03 22:50 | 33.51230 | -79.02554 | 734 ft | 113 kts | 60° |
| 2026-05-03 22:50 | 33.51676 | -79.01783 | 739 ft | 110 kts | 59° |
| 2026-05-03 22:51 | 33.52102 | -79.01008 | 713 ft | 113 kts | 61° |
| 2026-05-03 22:51 | 33.52555 | -79.00233 | 694 ft | 115 kts | 57° |
| 2026-05-03 22:51 | 33.53051 | -78.99455 | 677 ft | 118 kts | 54° |
| 2026-05-03 22:51 | 33.53598 | -78.98750 | 658 ft | 115 kts | 49° |
| 2026-05-03 22:52 | 33.54122 | -78.98014 | 575 ft | 117 kts | 59° |
| 2026-05-03 22:52 | 33.54504 | -78.97159 | 524 ft | 115 kts | 67° |
| 2026-05-03 22:52 | 33.54858 | -78.96307 | 513 ft | 112 kts | 70° |
| 2026-05-03 22:52 | 33.55218 | -78.95462 | 544 ft | 113 kts | 69° |
| 2026-05-03 22:53 | 33.55543 | -78.94608 | 539 ft | 112 kts | 70° |
| 2026-05-03 22:53 | 33.55933 | -78.93792 | 524 ft | 115 kts | 56° |
| 2026-05-03 22:53 | 33.56509 | -78.93111 | 523 ft | 116 kts | 48° |
| 2026-05-03 22:53 | 33.57099 | -78.92447 | 539 ft | 114 kts | 51° |
| 2026-05-03 22:54 | 33.57619 | -78.91737 | 564 ft | 114 kts | 57° |
| 2026-05-03 22:54 | 33.58141 | -78.91011 | 537 ft | 116 kts | 54° |
| 2026-05-03 22:54 | 33.58675 | -78.90277 | 558 ft | 116 kts | 57° |
| 2026-05-03 22:54 | 33.59160 | -78.89521 | 585 ft | 113 kts | 58° |
| 2026-05-03 22:55 | 33.59589 | -78.88740 | 622 ft | 111 kts | 65° |
| 2026-05-03 22:55 | 33.59995 | -78.87950 | 674 ft | 111 kts | 62° |
| 2026-05-03 22:55 | 33.60445 | -78.87184 | 635 ft | 117 kts | 60° |
| 2026-05-03 22:55 | 33.60977 | -78.86419 | 587 ft | 120 kts | 50° |
| 2026-05-03 22:56 | 33.61584 | -78.85743 | 584 ft | 119 kts | 45° |
| 2026-05-03 22:56 | 33.62239 | -78.85117 | 522 ft | 123 kts | 42° |
| 2026-05-03 22:56 | 33.62898 | -78.84493 | 530 ft | 118 kts | 42° |
| 2026-05-03 22:56 | 33.63556 | -78.83920 | 540 ft | 115 kts | 40° |
| 2026-05-03 22:57 | 33.64220 | -78.83382 | 576 ft | 113 kts | 38° |
| 2026-05-03 22:57 | 33.64879 | -78.82837 | 580 ft | 119 kts | 34° |
| 2026-05-03 22:57 | 33.65656 | -78.82421 | 574 ft | 124 kts | 17° |
| 2026-05-03 22:57 | 33.66506 | -78.82215 | 604 ft | 126 kts | 9° |
| 2026-05-03 22:58 | 33.67375 | -78.82055 | 658 ft | 124 kts | 10° |
| 2026-05-03 22:58 | 33.68204 | -78.81938 | 777 ft | 117 kts | 6° |
| 2026-05-03 22:58 | 33.69025 | -78.81870 | 859 ft | 120 kts | 358° |
| 2026-05-03 22:58 | 33.69862 | -78.82037 | 874 ft | 124 kts | 340° |
| 2026-05-03 22:59 | 33.70665 | -78.82397 | 919 ft | 123 kts | 333° |
| 2026-05-03 22:59 | 33.71449 | -78.82841 | 878 ft | 125 kts | 328° |
| 2026-05-03 22:59 | 33.72214 | -78.83297 | 917 ft | 120 kts | 336° |
| 2026-05-03 22:59 | 33.73040 | -78.83379 | 962 ft | 119 kts | 351° |
| 2026-05-03 23:00 | 33.73878 | -78.83385 | 1005 ft | 122 kts | 0° |
| 2026-05-03 23:00 | 33.74714 | -78.83204 | 991 ft | 126 kts | 20° |
| 2026-05-03 23:00 | 33.75416 | -78.82633 | 1111 ft | 117 kts | 41° |
| 2026-05-03 23:00 | 33.76015 | -78.82010 | 1130 ft | 113 kts | 38° |
| 2026-05-03 23:01 | 33.76687 | -78.81487 | 1116 ft | 115 kts | 30° |
| 2026-05-03 23:01 | 33.77428 | -78.81105 | 1030 ft | 121 kts | 11° |
| 2026-05-03 23:01 | 33.78264 | -78.80881 | 884 ft | 125 kts | 6° |
| 2026-05-03 23:01 | 33.79106 | -78.80699 | 787 ft | 123 kts | 7° |
| 2026-05-03 23:02 | 33.79923 | -78.80522 | 751 ft | 118 kts | 2° |
| 2026-05-03 23:02 | 33.80747 | -78.80506 | 695 ft | 120 kts | 350° |
| 2026-05-03 23:02 | 33.81564 | -78.80544 | 710 ft | 115 kts | 358° |
| 2026-05-03 23:02 | 33.82355 | -78.80538 | 721 ft | 115 kts | 0° |
| 2026-05-03 23:03 | 33.83105 | -78.80306 | 830 ft | 112 kts | 28° |
| 2026-05-03 23:03 | 33.83787 | -78.79819 | 902 ft | 115 kts | 34° |
| 2026-05-03 23:03 | 33.84478 | -78.79313 | 917 ft | 119 kts | 29° |
| 2026-05-03 23:03 | 33.85191 | -78.78791 | 1116 ft | 117 kts | 35° |
| 2026-05-03 23:04 | 33.85835 | -78.78229 | 1370 ft | 116 kts | 41° |
| 2026-05-03 23:04 | 33.86443 | -78.77532 | 1379 ft | 122 kts | 50° |
| 2026-05-03 23:04 | 33.86955 | -78.76746 | 1371 ft | 119 kts | 57° |
| 2026-05-03 23:04 | 33.87377 | -78.75907 | 1355 ft | 116 kts | 65° |
| 2026-05-03 23:05 | 33.87715 | -78.75054 | 1351 ft | 112 kts | 68° |
| 2026-05-03 23:05 | 33.88064 | -78.74217 | 1355 ft | 112 kts | 66° |
| 2026-05-03 23:05 | 33.88424 | -78.73384 | 1363 ft | 112 kts | 68° |
| 2026-05-03 23:05 | 33.88742 | -78.72515 | 1287 ft | 116 kts | 67° |
| 2026-05-03 23:06 | 33.89018 | -78.71592 | 1251 ft | 117 kts | 81° |
| 2026-05-03 23:06 | 33.89075 | -78.70647 | 1231 ft | 111 kts | 98° |
| 2026-05-03 23:06 | 33.88958 | -78.69711 | 1149 ft | 115 kts | 114° |
| 2026-05-03 23:06 | 33.88575 | -78.68896 | 1098 ft | 110 kts | 135° |
| 2026-05-03 23:07 | 33.88087 | -78.68196 | 1046 ft | 110 kts | 137° |
| 2026-05-03 23:07 | 33.87573 | -78.67499 | 964 ft | 113 kts | 139° |
| 2026-05-03 23:07 | 33.87081 | -78.66737 | 834 ft | 117 kts | 133° |
| 2026-05-03 23:07 | 33.86677 | -78.65910 | 814 ft | 110 kts | 122° |
| 2026-05-03 23:08 | 33.86490 | -78.64991 | 726 ft | 113 kts | 99° |
| 2026-05-03 23:08 | 33.86582 | -78.64063 | 694 ft | 111 kts | 89° |
| 2026-05-03 23:08 | 33.86497 | -78.63193 | 592 ft | 107 kts | 118° |
| 2026-05-03 23:08 | 33.86326 | -78.62323 | 548 ft | 115 kts | 92° |
| 2026-05-03 23:09 | 33.86660 | -78.61386 | 421 ft | 127 kts | 60° |
| 2026-05-03 23:09 | 33.87024 | -78.60493 | 446 ft | 112 kts | 75° |
| 2026-05-03 23:09 | 33.87275 | -78.59609 | 409 ft | 110 kts | 78° |
| 2026-05-03 23:09 | 33.87448 | -78.58708 | 395 ft | 110 kts | 85° |
| 2026-05-03 23:10 | 33.87440 | -78.57818 | 387 ft | 103 kts | 118° |
| 2026-05-03 23:10 | 33.86932 | -78.57385 | 287 ft | 95 kts | 194° |
| 2026-05-03 23:10 | 33.86277 | -78.57413 | 264 ft | 94 kts | 167° |
| 2026-05-03 23:10 | 33.85743 | -78.57184 | 443 ft | 72 kts | 184° |
| 2026-05-03 23:11 | 33.85403 | -78.57711 | 385 ft | 94 kts | 236° |
| 2026-05-03 23:11 | 33.85133 | -78.58502 | 399 ft | 109 kts | 243° |
| 2026-05-03 23:11 | 33.84883 | -78.59382 | 417 ft | 112 kts | 249° |
| 2026-05-03 23:11 | 33.84517 | -78.60064 | 423 ft | 99 kts | 184° |
| 2026-05-03 23:12 | 33.83877 | -78.59865 | 366 ft | 109 kts | 104° |
| 2026-05-03 23:12 | 33.84191 | -78.58968 | 366 ft | 121 kts | 77° |
| 2026-05-03 23:12 | 33.84425 | -78.57974 | 418 ft | 126 kts | 83° |
| 2026-05-03 23:12 | 33.84558 | -78.56959 | 569 ft | 120 kts | 89° |
| 2026-05-03 23:13 | 33.84646 | -78.55991 | 723 ft | 117 kts | 90° |
| 2026-05-03 23:13 | 33.85148 | -78.55205 | 779 ft | 130 kts | 39° |
| 2026-05-03 23:13 | 33.85800 | -78.54418 | 779 ft | 134 kts | 52° |
| 2026-05-03 23:13 | 33.86405 | -78.53563 | 791 ft | 131 kts | 53° |
| 2026-05-03 23:14 | 33.86938 | -78.52715 | 751 ft | 123 kts | 59° |
| 2026-05-03 23:14 | 33.87334 | -78.51811 | 746 ft | 119 kts | 69° |
| 2026-05-03 23:14 | 33.87579 | -78.50879 | 760 ft | 117 kts | 85° |
| 2026-05-03 23:14 | 33.87689 | -78.49915 | 717 ft | 116 kts | 90° |
| 2026-05-03 23:15 | 33.87735 | -78.48969 | 729 ft | 112 kts | 93° |
| 2026-05-03 23:15 | 33.87803 | -78.48017 | 716 ft | 117 kts | 83° |
| 2026-05-03 23:15 | 33.88055 | -78.47063 | 691 ft | 122 kts | 75° |
| 2026-05-03 23:15 | 33.88315 | -78.46103 | 683 ft | 120 kts | 78° |
| 2026-05-03 23:16 | 33.88607 | -78.45194 | 707 ft | 116 kts | 70° |
| 2026-05-03 23:16 | 33.88975 | -78.44323 | 708 ft | 118 kts | 69° |
| 2026-05-03 23:16 | 33.89314 | -78.43421 | 741 ft | 118 kts | 68° |
| 2026-05-03 23:16 | 33.89699 | -78.42549 | 769 ft | 120 kts | 59° |
| 2026-05-03 23:17 | 33.90212 | -78.41755 | 868 ft | 118 kts | 42° |
| 2026-05-03 23:17 | 33.90972 | -78.41487 | 818 ft | 119 kts | 348° |
| 2026-05-03 23:17 | 33.91559 | -78.42098 | 480 ft | 118 kts | 279° |
| 2026-05-03 23:17 | 33.91256 | -78.42927 | 145 ft | 99 kts | 232° |
| 2026-05-03 23:18 | 33.91007 | -78.43340 | 91 ft | 38 kts | 233° |
| 2026-05-03 23:18 | 33.90875 | -78.43574 | 74 ft | 29 kts | 238° |
| 2026-05-03 23:18 | 33.90770 | -78.43725 | 59 ft | 18 kts | 201° |
| 2026-05-03 23:18 | 33.90719 | -78.43715 | 43 ft | 1 kts | 239° |